Time;durP1;ratioP1;P1;durP2;ratioP2;P2;SDS_P1;SDS_P2;PMS_P1;PMS_P2;Temp;Humidity;BMP_temperature;BMP_pressure;BME280_temperature;BME280_humidity;BME280_pressure;Samples;Min_cycle;Max_cycle;Signal;HPM_P1;HPM_P2
2023/06/29 00:00:31;;;;;;;5.30;5.00;;;15.50;99.90;;;;;;4988799;28;20459;-82
2023/06/29 00:02:58;;;;;;;5.80;5.30;;;15.50;99.90;;;;;;5007210;28;20439;-82
2023/06/29 00:05:25;;;;;;;6.40;5.80;;;15.60;99.90;;;;;;5007850;28;20470;-81
2023/06/29 00:07:58;;;;;;;7.73;6.30;;;15.60;99.90;;;;;;4992928;28;20435;-83
2023/06/29 00:10:28;;;;;;;8.60;6.63;;;15.70;99.90;;;;;;4985248;28;20744;-82
2023/06/29 00:12:55;;;;;;;6.50;6.00;;;15.80;99.90;;;;;;4990844;28;20741;-83
2023/06/29 00:15:23;;;;;;;9.77;7.00;;;15.90;99.90;;;;;;4992692;28;20468;-80
2023/06/29 00:17:49;;;;;;;6.37;5.77;;;16.20;99.90;;;;;;4993236;28;20705;-80
2023/06/29 00:20:17;;;;;;;5.43;4.93;;;16.00;99.90;;;;;;4994327;28;20428;-81
2023/06/29 00:22:48;;;;;;;6.20;5.60;;;16.00;99.90;;;;;;4994197;28;20451;-81
2023/06/29 00:25:16;;;;;;;9.07;5.30;;;16.00;99.90;;;;;;4986676;28;20684;-81
2023/06/29 00:27:45;;;;;;;6.90;6.10;;;15.90;99.90;;;;;;4988145;28;20475;-81
2023/06/29 00:30:13;;;;;;;6.87;6.17;;;15.90;99.90;;;;;;4990699;28;20704;-79
2023/06/29 00:32:40;;;;;;;7.20;6.47;;;15.80;99.90;;;;;;4993674;28;20689;-80
2023/06/29 00:35:08;;;;;;;8.37;6.50;;;15.70;99.90;;;;;;4997647;28;20483;-79
2023/06/29 00:37:35;;;;;;;5.90;5.40;;;15.50;99.90;;;;;;4987472;28;20455;-80
2023/06/29 00:40:03;;;;;;;6.60;5.73;;;15.50;99.90;;;;;;4988240;28;20456;-81
2023/06/29 00:42:30;;;;;;;6.53;5.83;;;15.50;99.90;;;;;;4980839;28;20448;-81
2023/06/29 00:44:57;;;;;;;6.37;5.20;;;15.50;99.90;;;;;;4988295;28;20455;-80
2023/06/29 00:47:24;;;;;;;7.77;6.23;;;15.60;99.90;;;;;;4988466;28;20668;-80
2023/06/29 00:49:52;;;;;;;7.37;6.00;;;15.60;99.90;;;;;;4992871;28;20511;-80
2023/06/29 00:52:19;;;;;;;6.27;5.67;;;15.60;99.90;;;;;;4991436;28;20552;-80
2023/06/29 00:54:47;;;;;;;14.50;6.00;;;15.80;99.90;;;;;;4980611;28;20472;-82
2023/06/29 00:57:14;;;;;;;6.53;5.93;;;15.70;99.90;;;;;;4994192;28;20443;-81
2023/06/29 00:59:41;;;;;;;5.83;5.30;;;15.60;99.90;;;;;;4985040;28;20453;-80
2023/06/29 01:02:09;;;;;;;4.80;4.40;;;15.60;99.90;;;;;;4985931;28;20454;-81
2023/06/29 01:04:40;;;;;;;5.77;5.27;;;15.60;99.90;;;;;;4979869;28;20459;-82
2023/06/29 01:07:18;;;;;;;5.60;5.10;;;15.60;99.90;;;;;;4986423;28;20439;-82
2023/06/29 01:09:46;;;;;;;7.53;6.60;;;15.80;99.90;;;;;;4989948;28;20479;-81
2023/06/29 01:12:15;;;;;;;7.10;6.40;;;15.40;99.90;;;;;;4980532;28;20483;-81
2023/06/29 01:14:44;;;;;;;6.13;5.53;;;15.20;99.90;;;;;;4995436;28;20456;-80
2023/06/29 01:17:14;;;;;;;6.67;6.07;;;15.20;99.90;;;;;;4990901;28;20390;-82
2023/06/29 01:19:43;;;;;;;6.23;5.40;;;15.20;99.90;;;;;;4983920;28;20455;-81
2023/06/29 01:22:35;;;;;;;6.78;6.28;;;15.20;99.90;;;;;;4983816;28;20451;-82
2023/06/29 01:25:04;;;;;;;8.33;5.90;;;15.20;99.90;;;;;;4989918;28;20700;-81
2023/06/29 01:27:36;;;;;;;8.18;5.25;;;15.20;99.90;;;;;;4982415;28;20558;-81
2023/06/29 01:30:04;;;;;;;7.33;5.93;;;15.10;99.90;;;;;;4978514;28;20297;-82
2023/06/29 01:32:34;;;;;;;5.93;5.40;;;15.00;99.90;;;;;;4980498;28;20456;-82
2023/06/29 01:35:07;;;;;;;6.78;5.40;;;15.00;99.90;;;;;;4988874;28;20809;-80
2023/06/29 01:37:46;;;;;;;8.27;6.40;;;14.90;99.90;;;;;;4985092;28;20213;-82
2023/06/29 01:40:17;;;;;;;6.83;6.43;;;14.90;99.90;;;;;;4978277;28;20210;-81
2023/06/29 01:42:45;;;;;;;7.00;6.20;;;14.70;99.90;;;;;;4989675;28;20986;-81
2023/06/29 01:45:15;;;;;;;6.80;6.20;;;14.80;99.90;;;;;;4985823;28;20257;-80
2023/06/29 01:47:42;;;;;;;7.87;6.10;;;14.80;99.90;;;;;;4989037;28;20201;-82
2023/06/29 01:50:10;;;;;;;12.20;6.00;;;14.90;99.90;;;;;;4980352;28;20554;-82
2023/06/29 01:52:37;;;;;;;7.85;7.15;;;14.90;99.90;;;;;;4988622;28;20448;-82
2023/06/29 01:55:09;;;;;;;7.85;6.47;;;14.80;99.90;;;;;;4989374;28;20376;-83
2023/06/29 01:57:37;;;;;;;7.15;6.35;;;14.80;99.90;;;;;;4982310;28;20206;-80
2023/06/29 02:00:05;;;;;;;7.78;7.07;;;14.60;99.90;;;;;;4985463;28;20213;-80
2023/06/29 02:02:34;;;;;;;7.22;6.53;;;14.70;99.90;;;;;;4987952;28;20237;-80
2023/06/29 02:05:01;;;;;;;8.80;6.68;;;14.80;99.90;;;;;;4990507;28;20550;-81
2023/06/29 02:07:28;;;;;;;8.55;7.68;;;14.60;99.90;;;;;;4988777;28;20217;-80
2023/06/29 02:09:55;;;;;;;7.80;6.82;;;14.70;99.90;;;;;;4995396;28;20317;-82
2023/06/29 02:12:22;;;;;;;11.52;7.95;;;14.60;99.90;;;;;;4986517;28;20245;-81
2023/06/29 02:14:49;;;;;;;8.25;7.18;;;14.60;99.90;;;;;;4980907;28;20210;-80
2023/06/29 02:17:16;;;;;;;8.50;7.57;;;14.50;99.90;;;;;;4987141;28;20214;-82
2023/06/29 02:19:44;;;;;;;8.30;7.40;;;14.60;99.90;;;;;;4983758;28;20209;-82
2023/06/29 02:22:13;;;;;;;7.97;7.22;;;14.60;99.90;;;;;;4994167;28;20199;-81
2023/06/29 02:24:40;;;;;;;8.23;7.30;;;14.50;99.90;;;;;;4984902;28;20203;-82
2023/06/29 02:27:07;;;;;;;8.85;7.53;;;14.40;99.90;;;;;;4989584;28;20210;-82
2023/06/29 02:29:35;;;;;;;7.82;7.18;;;14.40;99.90;;;;;;4978972;28;20285;-82
2023/06/29 02:32:02;;;;;;;9.23;7.85;;;15.00;99.90;;;;;;4993278;28;20234;-83
2023/06/29 02:34:30;;;;;;;7.60;7.10;;;14.40;99.90;;;;;;4987257;28;20207;-80
2023/06/29 02:36:57;;;;;;;7.68;7.07;;;14.40;99.90;;;;;;4992344;28;20213;-81
2023/06/29 02:39:25;;;;;;;10.38;7.45;;;14.20;99.90;;;;;;4989341;28;20194;-81
2023/06/29 02:41:51;;;;;;;8.20;7.50;;;14.20;99.90;;;;;;4995807;28;20218;-80
2023/06/29 02:44:19;;;;;;;13.93;8.70;;;14.20;99.90;;;;;;4989680;28;20243;-82
2023/06/29 02:46:46;;;;;;;8.60;7.80;;;14.40;99.90;;;;;;4978985;28;20210;-82
2023/06/29 02:49:15;;;;;;;7.88;7.13;;;14.40;99.90;;;;;;4994974;28;20206;-82
2023/06/29 02:51:42;;;;;;;8.15;7.45;;;14.40;99.90;;;;;;4980652;28;20230;-79
2023/06/29 02:54:11;;;;;;;9.32;7.63;;;14.40;99.90;;;;;;4990666;28;20277;-81
2023/06/29 02:56:39;;;;;;;11.07;7.93;;;14.50;99.90;;;;;;4975182;28;20278;-81
2023/06/29 02:59:07;;;;;;;8.52;7.82;;;14.50;99.90;;;;;;4986043;28;20205;-81
2023/06/29 03:01:34;;;;;;;7.72;7.10;;;14.50;99.90;;;;;;4982749;28;20277;-80
2023/06/29 03:04:02;;;;;;;9.13;8.25;;;14.40;99.90;;;;;;4980533;28;20245;-83
2023/06/29 03:06:29;;;;;;;9.57;8.68;;;14.40;99.90;;;;;;4987838;28;20210;-81
2023/06/29 03:08:56;;;;;;;9.35;8.35;;;14.40;99.90;;;;;;4980657;28;20218;-82
2023/06/29 03:11:23;;;;;;;9.25;8.35;;;14.40;99.90;;;;;;4989141;28;20293;-80
2023/06/29 03:13:51;;;;;;;8.85;7.97;;;14.40;99.90;;;;;;4990665;28;20264;-82
2023/06/29 03:16:17;;;;;;;9.45;8.55;;;14.50;99.90;;;;;;4987600;28;20253;-80
2023/06/29 03:18:45;;;;;;;8.35;7.60;;;14.70;99.90;;;;;;4991938;28;20206;-82
2023/06/29 03:21:16;;;;;;;9.18;7.15;;;14.80;99.90;;;;;;4991858;28;20210;-81
2023/06/29 03:23:55;;;;;;;8.60;7.90;;;14.80;99.90;;;;;;4992937;28;20261;-80
2023/06/29 03:26:22;;;;;;;9.55;7.82;;;14.90;99.90;;;;;;4993306;28;20206;-80
2023/06/29 03:28:49;;;;;;;10.90;7.77;;;15.50;99.90;;;;;;4984896;28;20224;-80
2023/06/29 03:31:16;;;;;;;8.03;7.20;;;16.00;99.90;;;;;;4999787;28;20479;-80
2023/06/29 03:33:44;;;;;;;7.83;6.10;;;16.50;99.90;;;;;;4991161;28;20483;-81
2023/06/29 03:36:12;;;;;;;7.07;6.50;;;16.90;99.90;;;;;;4998491;28;20503;-80
2023/06/29 03:38:40;;;;;;;6.93;6.20;;;17.30;99.90;;;;;;5005186;28;20503;-81
2023/06/29 03:41:06;;;;;;;6.90;6.20;;;17.90;99.90;;;;;;4998226;28;20448;-81
2023/06/29 03:43:34;;;;;;;5.50;5.10;;;18.10;99.90;;;;;;4995568;28;20458;-81
2023/06/29 03:46:07;;;;;;;10.63;6.57;;;18.00;99.90;;;;;;4999114;28;20575;-81
2023/06/29 03:48:34;;;;;;;6.50;5.90;;;18.00;99.90;;;;;;4988079;28;20450;-80
2023/06/29 03:51:02;;;;;;;6.87;6.30;;;17.70;99.90;;;;;;4983910;28;20900;-80
2023/06/29 03:53:29;;;;;;;8.23;6.30;;;17.50;99.90;;;;;;4981655;28;20465;-81
2023/06/29 03:55:56;;;;;;;11.07;7.17;;;17.40;99.90;;;;;;4988557;28;20462;-79
2023/06/29 03:58:24;;;;;;;8.00;6.73;;;17.30;99.90;;;;;;4985090;28;20856;-81
2023/06/29 04:00:51;;;;;;;9.00;6.17;;;17.30;99.90;;;;;;4994313;28;20432;-80
2023/06/29 04:03:18;;;;;;;6.60;6.00;;;17.30;99.90;;;;;;4990456;28;20436;-81
2023/06/29 04:05:45;;;;;;;7.70;6.73;;;17.30;99.90;;;;;;4988398;28;20422;-82
2023/06/29 04:08:12;;;;;;;9.80;6.80;;;17.50;99.90;;;;;;4986296;28;21021;-83
2023/06/29 04:10:39;;;;;;;6.70;6.20;;;17.70;99.90;;;;;;4980459;28;20488;-81
2023/06/29 04:13:06;;;;;;;6.23;5.73;;;17.90;99.90;;;;;;4988237;28;20531;-80
2023/06/29 04:15:33;;;;;;;5.63;5.23;;;18.40;99.90;;;;;;4983797;28;20447;-81
2023/06/29 04:18:01;;;;;;;8.07;5.93;;;18.70;99.90;;;;;;4988057;28;20515;-80
2023/06/29 04:20:29;;;;;;;5.63;4.90;;;18.70;99.90;;;;;;4984098;28;20462;-81
2023/06/29 04:22:56;;;;;;;8.00;5.00;;;18.50;99.90;;;;;;4986560;28;20490;-79
2023/06/29 04:25:23;;;;;;;6.77;5.97;;;18.30;99.90;;;;;;4992999;28;20453;-78
2023/06/29 04:27:52;;;;;;;12.90;7.77;;;17.80;99.90;;;;;;4995047;28;20498;-81
2023/06/29 04:30:19;;;;;;;7.23;6.53;;;17.70;99.90;;;;;;4984657;28;20459;-79
2023/06/29 04:32:47;;;;;;;9.47;6.10;;;17.50;99.90;;;;;;4985131;28;20437;-78
2023/06/29 04:35:15;;;;;;;10.47;6.87;;;17.30;99.90;;;;;;4990518;28;20436;-79
2023/06/29 04:37:41;;;;;;;10.43;5.80;;;17.30;99.90;;;;;;4979668;28;20787;-80
2023/06/29 04:40:09;;;;;;;8.77;6.27;;;17.40;99.90;;;;;;4994724;28;20458;-80
2023/06/29 04:42:43;;;;;;;5.83;5.27;;;17.40;99.90;;;;;;4975590;28;20437;-81
2023/06/29 04:45:19;;;;;;;6.77;5.57;;;17.60;99.90;;;;;;4979177;28;20435;-78
2023/06/29 04:47:51;;;;;;;5.00;4.60;;;17.50;99.90;;;;;;4981440;28;20472;-77
2023/06/29 04:50:26;;;;;;;9.10;6.23;;;17.50;99.90;;;;;;4987557;28;20444;-82
2023/06/29 04:52:58;;;;;;;6.67;5.83;;;17.60;99.90;;;;;;4977305;28;20440;-81
2023/06/29 04:55:26;;;;;;;7.20;6.50;;;17.80;99.90;;;;;;4981274;28;20447;-80
2023/06/29 04:57:52;;;;;;;6.63;6.03;;;17.90;99.90;;;;;;4989241;28;20431;-78
2023/06/29 05:00:21;;;;;;;6.17;5.57;;;17.90;99.90;;;;;;4988019;28;20460;-79
2023/06/29 05:02:48;;;;;;;6.17;5.60;;;18.00;99.90;;;;;;4982537;28;20429;-79
2023/06/29 05:05:18;;;;;;;15.67;6.60;;;18.10;99.90;;;;;;4982078;28;20783;-79
2023/06/29 05:07:45;;;;;;;7.37;6.10;;;18.20;99.90;;;;;;4980957;28;20456;-80
2023/06/29 05:10:12;;;;;;;8.77;5.73;;;18.30;99.90;;;;;;4982773;28;20422;-81
2023/06/29 05:12:40;;;;;;;8.33;5.30;;;18.50;99.90;;;;;;4987579;28;20484;-81
2023/06/29 05:15:07;;;;;;;6.93;6.30;;;18.60;99.90;;;;;;4982074;28;20731;-80
2023/06/29 05:17:34;;;;;;;7.53;6.57;;;18.90;99.90;;;;;;4974379;28;20446;-82
2023/06/29 05:20:04;;;;;;;8.90;6.80;;;18.90;99.90;;;;;;4987739;28;20440;-81
2023/06/29 05:22:33;;;;;;;6.37;5.40;;;19.00;99.90;;;;;;4978908;28;20435;-80
2023/06/29 05:25:00;;;;;;;6.10;5.20;;;19.10;99.90;;;;;;4989377;28;20469;-80
2023/06/29 05:27:27;;;;;;;6.10;5.50;;;19.10;99.90;;;;;;4976877;28;20461;-77
2023/06/29 05:29:54;;;;;;;11.47;6.33;;;19.30;99.90;;;;;;4987131;28;20516;-78
2023/06/29 05:32:22;;;;;;;6.53;4.93;;;19.40;99.90;;;;;;4988841;28;20480;-78
2023/06/29 05:34:49;;;;;;;6.83;5.87;;;19.40;99.90;;;;;;4994802;28;20455;-79
2023/06/29 05:37:17;;;;;;;6.30;5.90;;;19.50;99.90;;;;;;4985538;28;20419;-79
2023/06/29 05:39:44;;;;;;;6.87;5.80;;;19.60;99.90;;;;;;4975506;28;20648;-79
2023/06/29 05:42:12;;;;;;;8.93;6.20;;;19.70;99.90;;;;;;4977739;28;20459;-79
2023/06/29 05:44:38;;;;;;;7.67;5.90;;;19.80;99.90;;;;;;4978210;28;20452;-80
2023/06/29 05:47:06;;;;;;;10.27;6.43;;;19.80;99.90;;;;;;4987807;28;20418;-81
2023/06/29 05:49:35;;;;;;;8.57;6.40;;;19.90;99.90;;;;;;4974971;28;20537;-81
2023/06/29 05:52:02;;;;;;;5.87;5.27;;;20.10;99.90;;;;;;4974902;28;20824;-79
2023/06/29 05:54:29;;;;;;;7.37;5.93;;;20.20;99.90;;;;;;4969257;28;20444;-80
2023/06/29 05:56:56;;;;;;;6.00;5.43;;;20.30;99.90;;;;;;4975351;28;20513;-79
2023/06/29 05:59:25;;;;;;;7.20;6.10;;;20.40;99.90;;;;;;4988841;28;20454;-80
2023/06/29 06:01:56;;;;;;;7.17;6.50;;;20.60;99.90;;;;;;4998747;28;20419;-83
2023/06/29 06:04:23;;;;;;;6.83;5.80;;;20.70;99.90;;;;;;5003164;28;20455;-78
2023/06/29 06:06:50;;;;;;;8.10;6.53;;;21.10;99.90;;;;;;4982761;28;20740;-79
2023/06/29 06:09:18;;;;;;;11.30;6.00;;;21.20;99.90;;;;;;4978132;28;20488;-80
2023/06/29 06:11:44;;;;;;;5.80;5.30;;;21.30;99.90;;;;;;4986082;28;20494;-80
2023/06/29 06:14:12;;;;;;;10.73;7.00;;;21.30;99.90;;;;;;4982177;28;20512;-80
2023/06/29 06:16:40;;;;;;;5.73;5.20;;;21.40;99.90;;;;;;4979436;28;20433;-79
2023/06/29 06:19:09;;;;;;;6.87;6.27;;;21.60;99.90;;;;;;4987496;28;20963;-79
2023/06/29 06:21:36;;;;;;;12.07;6.63;;;21.70;99.90;;;;;;4983712;28;20419;-80
2023/06/29 06:24:02;;;;;;;9.13;5.10;;;21.80;99.90;;;;;;4980130;28;20448;-78
2023/06/29 06:26:30;;;;;;;17.57;6.10;;;21.70;99.90;;;;;;4987048;28;20414;-79
2023/06/29 06:28:56;;;;;;;8.87;5.60;;;21.70;99.90;;;;;;4983433;28;20436;-79
2023/06/29 06:31:25;;;;;;;8.63;5.63;;;21.90;99.90;;;;;;4976935;28;20847;-81
2023/06/29 06:34:02;;;;;;;6.50;5.90;;;21.90;99.90;;;;;;4982717;28;20410;-84
2023/06/29 06:36:30;;;;;;;7.07;5.60;;;22.10;99.90;;;;;;4988057;28;20470;-80
2023/06/29 06:38:59;;;;;;;8.90;5.90;;;22.30;99.90;;;;;;4983990;28;20609;-81
2023/06/29 06:41:26;;;;;;;6.83;6.17;;;22.40;99.90;;;;;;4985720;28;20523;-79
2023/06/29 06:43:54;;;;;;;5.57;5.17;;;22.50;99.90;;;;;;4994303;28;21111;-80
2023/06/29 06:46:21;;;;;;;7.07;5.30;;;22.90;99.90;;;;;;4982157;28;20462;-82
2023/06/29 06:48:48;;;;;;;6.73;5.97;;;23.20;99.90;;;;;;4984998;28;20451;-78
2023/06/29 06:51:15;;;;;;;6.43;5.80;;;23.50;99.90;;;;;;4985512;28;20474;-80
2023/06/29 06:53:46;;;;;;;7.37;5.17;;;23.70;99.90;;;;;;4988760;28;20448;-80
2023/06/29 06:56:14;;;;;;;6.30;5.80;;;23.60;99.90;;;;;;4984293;28;20423;-78
2023/06/29 06:58:41;;;;;;;5.23;4.83;;;23.60;99.90;;;;;;4981972;28;20459;-81
2023/06/29 07:01:09;;;;;;;5.20;4.43;;;23.80;99.90;;;;;;4979561;28;20664;-82
2023/06/29 07:03:36;;;;;;;5.77;5.27;;;24.80;99.90;;;;;;4984437;28;20425;-78
2023/06/29 07:06:07;;;;;;;8.13;4.80;;;26.00;99.90;;;;;;4982931;28;20423;-83
2023/06/29 07:08:37;;;;;;;5.80;5.17;;;27.00;99.90;;;;;;4979679;28;20423;-81
2023/06/29 07:11:06;;;;;;;5.73;5.23;;;28.70;99.90;;;;;;4993901;28;20403;-87
2023/06/29 07:13:35;;;;;;;5.50;5.07;;;29.80;99.90;;;;;;5007587;28;20523;-82
2023/06/29 07:16:05;;;;;;;5.30;4.80;;;30.10;99.90;;;;;;5012273;28;20510;-83
2023/06/29 07:18:38;;;;;;;6.27;5.67;;;30.00;99.90;;;;;;4976875;28;20439;-81
2023/06/29 07:21:05;;;;;;;5.00;4.50;;;31.40;99.90;;;;;;4983292;28;20656;-81
2023/06/29 07:23:34;;;;;;;5.50;5.00;;;31.60;99.80;;;;;;4978326;28;20453;-82
2023/06/29 07:26:04;;;;;;;5.03;4.63;;;30.50;99.90;;;;;;4987119;28;20768;-80
2023/06/29 07:28:31;;;;;;;6.07;5.57;;;30.60;99.90;;;;;;4983717;28;20452;-79
2023/06/29 07:31:00;;;;;;;6.43;5.97;;;30.90;99.90;;;;;;4980391;28;20785;-81
2023/06/29 07:33:30;;;;;;;6.13;5.60;;;32.00;99.60;;;;;;4980225;28;20431;-83
2023/06/29 07:36:05;;;;;;;6.80;6.20;;;32.50;96.90;;;;;;4970381;28;20440;-83
2023/06/29 07:38:36;;;;;;;7.47;5.60;;;35.00;91.90;;;;;;4984545;28;20448;-84
2023/06/29 07:41:16;;;;;;;6.90;5.63;;;37.10;80.40;;;;;;4988132;28;20447;-81
2023/06/29 07:43:55;;;;;;;6.50;5.93;;;38.70;65.20;;;;;;4986239;28;20487;-79
2023/06/29 07:46:23;;;;;;;5.50;5.00;;;38.60;63.80;;;;;;4984935;28;20455;-79
2023/06/29 07:48:51;;;;;;;5.60;5.10;;;37.20;64.50;;;;;;4980480;28;20451;-83
2023/06/29 07:51:18;;;;;;;5.13;4.83;;;37.50;63.70;;;;;;4973771;28;20460;-84
2023/06/29 07:53:53;;;;;;;7.27;4.73;;;38.50;59.70;;;;;;4977536;28;20869;-85
2023/06/29 07:56:20;;;;;;;6.33;5.10;;;38.30;57.10;;;;;;4985166;28;20523;-82
2023/06/29 07:58:47;;;;;;;5.07;4.77;;;38.50;57.50;;;;;;4988523;28;20494;-83
2023/06/29 08:01:18;;;;;;;5.27;4.97;;;37.30;59.00;;;;;;4982081;28;20539;-81
2023/06/29 08:03:46;;;;;;;6.03;5.60;;;35.70;62.10;;;;;;4986192;28;20460;-82
2023/06/29 08:06:31;;;;;;;6.17;5.67;;;33.00;67.50;;;;;;4977819;28;20467;-82
2023/06/29 08:09:01;;;;;;;6.20;5.70;;;31.30;72.90;;;;;;4977893;28;20522;-81
2023/06/29 08:11:28;;;;;;;5.70;5.30;;;33.10;71.10;;;;;;4991916;28;20455;-83
2023/06/29 08:13:59;;;;;;;5.47;5.00;;;34.90;65.10;;;;;;4979304;28;20544;-84
2023/06/29 08:16:27;;;;;;;5.50;5.20;;;34.90;62.90;;;;;;4987154;28;20741;-80
2023/06/29 08:18:55;;;;;;;6.00;5.50;;;33.00;67.10;;;;;;4985475;28;20449;-80
2023/06/29 08:21:22;;;;;;;5.60;4.87;;;31.50;72.20;;;;;;4982649;28;20506;-82
2023/06/29 08:23:56;;;;;;;8.17;5.20;;;30.90;75.70;;;;;;4979594;28;20440;-83
2023/06/29 08:26:27;;;;;;;5.60;5.20;;;32.10;74.60;;;;;;4977453;28;20444;-81
2023/06/29 08:28:59;;;;;;;5.93;5.40;;;34.00;67.10;;;;;;4987982;28;20452;-83
2023/06/29 08:31:28;;;;;;;5.30;4.80;;;34.90;64.30;;;;;;4982702;28;20846;-80
2023/06/29 08:33:59;;;;;;;5.40;5.00;;;34.60;64.90;;;;;;4995953;28;20455;-83
2023/06/29 08:36:29;;;;;;;5.90;5.40;;;33.50;66.90;;;;;;4979876;28;20464;-83
2023/06/29 08:39:03;;;;;;;5.30;5.00;;;33.50;67.00;;;;;;4980620;28;20441;-82
2023/06/29 08:41:32;;;;;;;6.00;5.50;;;32.50;69.20;;;;;;4971990;28;20449;-80
2023/06/29 08:44:01;;;;;;;5.87;5.37;;;31.30;71.70;;;;;;4989684;28;20541;-81
2023/06/29 08:46:29;;;;;;;8.00;5.30;;;29.90;78.00;;;;;;4985618;28;20510;-82
2023/06/29 08:48:56;;;;;;;5.83;5.30;;;29.90;81.00;;;;;;4978955;28;20477;-80
2023/06/29 08:51:32;;;;;;;5.30;4.87;;;32.70;73.80;;;;;;4992200;28;20480;-83
2023/06/29 08:54:03;;;;;;;5.70;4.97;;;35.20;66.10;;;;;;4986177;28;20756;-82
2023/06/29 08:56:30;;;;;;;5.67;5.27;;;36.30;62.70;;;;;;4956442;28;20487;-80
2023/06/29 08:58:58;;;;;;;5.00;4.60;;;38.10;56.90;;;;;;4980122;28;20535;-83
2023/06/29 09:01:30;;;;;;;5.47;4.70;;;39.20;53.60;;;;;;4988651;28;20907;-85
2023/06/29 09:03:59;;;;;;;5.20;4.83;;;39.10;52.70;;;;;;4993397;28;20439;-83
2023/06/29 09:06:27;;;;;;;5.33;5.03;;;39.50;51.80;;;;;;4982335;28;20436;-87
2023/06/29 09:09:17;;;;;;;6.30;5.80;;;41.00;48.10;;;;;;4989212;28;20473;-83
2023/06/29 09:11:55;;;;;;;5.70;5.30;;;41.40;46.90;;;;;;4982770;28;20720;-82
2023/06/29 09:14:23;;;;;;;5.30;4.80;;;41.60;48.00;;;;;;4997305;28;20439;-83
2023/06/29 09:16:58;;;;;;;4.97;4.50;;;41.50;47.40;;;;;;4989329;28;20521;-82
2023/06/29 09:19:26;;;;;;;5.83;5.43;;;40.80;48.00;;;;;;4974930;28;20451;-83
2023/06/29 09:21:54;;;;;;;5.27;4.87;;;39.00;48.90;;;;;;4983496;28;21150;-83
2023/06/29 09:24:21;;;;;;;7.77;5.70;;;37.30;50.90;;;;;;4986095;28;20440;-82
2023/06/29 09:26:53;;;;;;;6.07;5.60;;;34.80;55.20;;;;;;4991504;28;20460;-79
2023/06/29 09:29:20;;;;;;;5.53;5.13;;;34.00;57.30;;;;;;4988129;28;20555;-82
2023/06/29 09:32:00;;;;;;;5.53;4.70;;;32.60;59.20;;;;;;4989547;28;20512;-82
2023/06/29 09:34:27;;;;;;;5.57;5.07;;;32.50;61.40;;;;;;4989614;28;20431;-80
2023/06/29 09:36:55;;;;;;;5.27;4.97;;;34.10;58.40;;;;;;4981254;28;20448;-87
2023/06/29 09:39:23;;;;;;;5.40;5.00;;;33.80;58.70;;;;;;4977430;28;20449;-82
2023/06/29 09:41:58;;;;;;;5.70;5.20;;;32.00;62.70;;;;;;4978883;28;20459;-81
2023/06/29 09:44:26;;;;;;;5.00;4.60;;;30.80;64.20;;;;;;4979481;28;20403;-81
2023/06/29 09:47:23;;;;;;;4.53;4.30;;;29.30;67.00;;;;;;4987274;28;20548;-85
2023/06/29 09:49:53;;;;;;;5.10;4.60;;;28.60;74.00;;;;;;4982548;28;20530;-80
2023/06/29 09:52:23;;;;;;;5.33;4.43;;;28.60;75.30;;;;;;4991754;28;20479;-86
2023/06/29 09:54:57;;;;;;;4.57;4.27;;;28.70;76.10;;;;;;4984808;28;20448;-83
2023/06/29 09:57:30;;;;;;;4.03;3.83;;;28.80;74.50;;;;;;4989146;28;20453;-79
2023/06/29 09:59:59;;;;;;;6.13;4.30;;;29.20;73.10;;;;;;4981111;28;20479;-83
2023/06/29 10:02:28;;;;;;;4.30;3.80;;;29.40;72.60;;;;;;4985174;28;20678;-84
2023/06/29 10:04:57;;;;;;;4.53;4.23;;;29.70;71.50;;;;;;4988006;28;20469;-77
2023/06/29 10:07:25;;;;;;;4.13;3.93;;;29.60;71.30;;;;;;4982344;28;20903;-82
2023/06/29 10:09:53;;;;;;;4.30;3.90;;;28.80;71.80;;;;;;4975253;28;20421;-83
2023/06/29 10:12:26;;;;;;;3.70;3.50;;;28.30;72.80;;;;;;4977819;28;20878;-84
2023/06/29 10:15:05;;;;;;;4.97;4.47;;;28.30;73.30;;;;;;4972678;28;20999;-81
2023/06/29 10:17:48;;;;;;;4.40;4.10;;;27.80;72.80;;;;;;4974659;28;20503;-85
2023/06/29 10:20:18;;;;;;;3.97;3.70;;;27.50;74.50;;;;;;4988950;28;20862;-79
2023/06/29 10:22:48;;;;;;;4.93;4.53;;;27.10;76.80;;;;;;4977461;28;20434;-83
2023/06/29 10:25:19;;;;;;;6.73;4.40;;;27.10;79.80;;;;;;4979848;28;20518;-83
2023/06/29 10:27:48;;;;;;;4.90;4.50;;;27.40;80.00;;;;;;4987819;28;20447;-82
2023/06/29 10:30:20;;;;;;;4.10;3.80;;;27.60;77.10;;;;;;4978038;28;20564;-80
2023/06/29 10:32:50;;;;;;;4.10;3.80;;;27.50;76.70;;;;;;4975700;28;20534;-83
2023/06/29 10:35:17;;;;;;;7.63;4.10;;;27.30;80.00;;;;;;4985946;28;20419;-81
2023/06/29 10:37:47;;;;;;;4.47;4.17;;;27.20;79.30;;;;;;4998994;28;20483;-84
2023/06/29 10:40:24;;;;;;;4.10;3.80;;;27.20;80.10;;;;;;4994716;28;20419;-85
2023/06/29 10:42:55;;;;;;;4.23;3.97;;;27.40;79.00;;;;;;4998608;28;20452;-81
2023/06/29 10:45:22;;;;;;;4.33;3.87;;;27.60;79.20;;;;;;4982324;28;20434;-83
2023/06/29 10:48:01;;;;;;;5.07;4.67;;;27.90;79.30;;;;;;4969446;28;20552;-82
2023/06/29 10:50:37;;;;;;;4.57;4.17;;;28.10;77.60;;;;;;4978553;28;20707;-84
2023/06/29 10:53:07;;;;;;;4.43;4.13;;;28.00;77.20;;;;;;4982849;28;20462;-82
2023/06/29 10:55:53;;;;;;;4.77;4.40;;;27.60;76.80;;;;;;4965577;28;20506;-82
2023/06/29 10:58:42;;;;;;;4.27;3.87;;;28.00;78.90;;;;;;4975993;28;20434;-81
2023/06/29 11:01:09;;;;;;;4.23;3.80;;;28.30;78.90;;;;;;4973280;28;20718;-82
2023/06/29 11:03:37;;;;;;;4.37;4.07;;;28.50;80.10;;;;;;4983923;28;20437;-83
2023/06/29 11:06:04;;;;;;;5.03;4.20;;;28.30;77.20;;;;;;4981752;28;20430;-82
2023/06/29 11:08:32;;;;;;;5.73;3.93;;;28.00;79.00;;;;;;4977428;28;20447;-83
2023/06/29 11:11:15;;;;;;;4.10;3.80;;;27.80;78.10;;;;;;4976213;28;20453;-82
2023/06/29 11:13:43;;;;;;;5.77;5.30;;;27.10;79.60;;;;;;4975859;28;20475;-84
2023/06/29 11:16:17;;;;;;;4.50;4.20;;;26.70;82.60;;;;;;4979396;28;20462;-85
2023/06/29 11:18:50;;;;;;;4.80;4.50;;;26.80;85.10;;;;;;4982701;28;20440;-85
2023/06/29 11:21:21;;;;;;;5.37;4.87;;;27.20;86.10;;;;;;4983237;28;20478;-84
2023/06/29 11:23:51;;;;;;;4.67;4.47;;;27.70;85.80;;;;;;4978993;28;20431;-84
2023/06/29 11:26:20;;;;;;;4.80;4.40;;;28.00;85.10;;;;;;4979221;28;20468;-83
2023/06/29 11:28:50;;;;;;;4.57;4.37;;;28.10;82.50;;;;;;4976584;28;20460;-82
2023/06/29 11:31:17;;;;;;;5.10;4.80;;;27.90;83.20;;;;;;4981367;28;20436;-84
2023/06/29 11:33:52;;;;;;;4.73;4.33;;;27.80;84.50;;;;;;4982018;28;20472;-84
2023/06/29 11:36:29;;;;;;;4.53;4.20;;;27.90;83.00;;;;;;4984396;28;20527;-82
2023/06/29 11:39:07;;;;;;;4.47;4.07;;;27.90;81.10;;;;;;4982771;28;20471;-87
2023/06/29 11:41:38;;;;;;;4.47;4.10;;;27.80;79.70;;;;;;4977835;28;20815;-82
2023/06/29 11:44:08;;;;;;;4.30;3.90;;;28.00;81.80;;;;;;4997923;28;20474;-82
2023/06/29 11:46:47;;;;;;;4.47;4.07;;;28.40;80.40;;;;;;4973295;28;20614;-88
2023/06/29 11:49:41;;;;;;;4.30;4.10;;;28.60;79.40;;;;;;4984054;28;20508;-84
2023/06/29 11:52:12;;;;;;;4.60;4.30;;;28.80;78.60;;;;;;4975889;28;20444;-80
2023/06/29 11:54:39;;;;;;;4.73;4.20;;;28.70;77.60;;;;;;4969869;28;20461;-84
2023/06/29 11:57:22;;;;;;;4.40;4.10;;;28.00;80.80;;;;;;4980952;28;20502;-83
2023/06/29 11:59:53;;;;;;;4.13;3.83;;;27.70;78.30;;;;;;4987759;28;20488;-82
2023/06/29 12:02:23;;;;;;;4.37;4.07;;;27.40;79.10;;;;;;4983449;28;20451;-82
2023/06/29 12:04:58;;;;;;;4.57;4.17;;;27.70;80.50;;;;;;4989540;28;20452;-82
2023/06/29 12:07:41;;;;;;;4.50;4.20;;;27.60;81.60;;;;;;4981882;28;20444;-80
2023/06/29 12:10:22;;;;;;;4.90;4.40;;;27.30;81.70;;;;;;4977707;28;20444;-81
2023/06/29 12:13:04;;;;;;;4.90;4.43;;;27.10;83.30;;;;;;4978960;28;20807;-82
2023/06/29 12:15:32;;;;;;;5.93;3.97;;;27.40;84.20;;;;;;4982669;28;20459;-83
2023/06/29 12:18:20;;;;;;;4.60;4.23;;;27.70;83.40;;;;;;4983406;28;20482;-84
2023/06/29 12:20:50;;;;;;;4.20;3.90;;;28.40;81.60;;;;;;4988307;28;20498;-85
2023/06/29 12:23:26;;;;;;;4.43;4.10;;;28.40;77.70;;;;;;4976059;28;20438;-81
2023/06/29 12:25:53;;;;;;;4.77;4.40;;;28.30;78.00;;;;;;4980327;28;20429;-84
2023/06/29 12:28:25;;;;;;;4.70;4.40;;;28.00;78.90;;;;;;4980379;28;20583;-81
2023/06/29 12:30:52;;;;;;;4.47;4.17;;;28.00;81.70;;;;;;4988800;28;20512;-81
2023/06/29 12:33:21;;;;;;;6.80;4.50;;;28.00;81.50;;;;;;4982601;28;20458;-81
2023/06/29 12:35:49;;;;;;;4.10;3.80;;;28.00;80.50;;;;;;4983837;28;20444;-80
2023/06/29 12:38:18;;;;;;;5.03;3.87;;;27.90;81.40;;;;;;4992715;28;20455;-85
2023/06/29 12:40:47;;;;;;;4.97;4.57;;;27.90;81.70;;;;;;4973599;28;20434;-83
2023/06/29 12:43:14;;;;;;;4.90;4.47;;;28.00;80.40;;;;;;4977341;28;20572;-83
2023/06/29 12:45:43;;;;;;;4.30;4.07;;;28.00;81.30;;;;;;4970650;28;20424;-85
2023/06/29 12:48:17;;;;;;;4.27;3.87;;;27.80;81.20;;;;;;4975966;28;20632;-84
2023/06/29 12:51:11;;;;;;;4.77;4.37;;;27.80;83.00;;;;;;4982635;28;20496;-85
2023/06/29 12:53:43;;;;;;;4.50;4.20;;;27.90;85.60;;;;;;4974924;28;20474;-84
2023/06/29 12:56:12;;;;;;;4.60;4.30;;;27.80;84.00;;;;;;4983494;28;20430;-82
2023/06/29 12:58:46;;;;;;;4.53;4.23;;;27.70;83.70;;;;;;4973167;28;20599;-86